sensor_id;sensor_type;location;lat;lon;timestamp;P1;durP1;ratioP1;P2;durP2;ratioP2
37297;SDS011;30517;51.932;4.278;2024-01-06T00:02:33;5.20;;;2.50;;
37297;SDS011;30517;51.932;4.278;2024-01-06T00:05:14;5.13;;;2.40;;
37297;SDS011;30517;51.932;4.278;2024-01-06T00:07:55;5.18;;;2.25;;
37297;SDS011;30517;51.932;4.278;2024-01-06T00:10:36;5.30;;;2.25;;
37297;SDS011;30517;51.932;4.278;2024-01-06T00:13:16;5.50;;;2.50;;
37297;SDS011;30517;51.932;4.278;2024-01-06T00:15:57;5.60;;;2.60;;
37297;SDS011;30517;51.932;4.278;2024-01-06T00:18:39;5.50;;;2.53;;
37297;SDS011;30517;51.932;4.278;2024-01-06T00:21:20;4.93;;;2.40;;
37297;SDS011;30517;51.932;4.278;2024-01-06T00:24:00;6.65;;;2.60;;
37297;SDS011;30517;51.932;4.278;2024-01-06T00:26:41;4.18;;;1.88;;
37297;SDS011;30517;51.932;4.278;2024-01-06T00:29:22;4.47;;;2.33;;
37297;SDS011;30517;51.932;4.278;2024-01-06T00:32:03;5.20;;;2.55;;
37297;SDS011;30517;51.932;4.278;2024-01-06T00:34:44;4.68;;;2.55;;
37297;SDS011;30517;51.932;4.278;2024-01-06T00:37:25;5.85;;;2.35;;
37297;SDS011;30517;51.932;4.278;2024-01-06T00:40:06;5.50;;;2.28;;
37297;SDS011;30517;51.932;4.278;2024-01-06T00:42:47;7.80;;;2.33;;
37297;SDS011;30517;51.932;4.278;2024-01-06T00:45:28;3.85;;;2.08;;
37297;SDS011;30517;51.932;4.278;2024-01-06T00:48:10;3.75;;;2.03;;
37297;SDS011;30517;51.932;4.278;2024-01-06T00:50:51;3.88;;;2.10;;
37297;SDS011;30517;51.932;4.278;2024-01-06T00:53:32;3.95;;;2.00;;
37297;SDS011;30517;51.932;4.278;2024-01-06T00:56:13;4.63;;;2.28;;
37297;SDS011;30517;51.932;4.278;2024-01-06T00:58:54;3.97;;;2.20;;
37297;SDS011;30517;51.932;4.278;2024-01-06T01:01:35;4.40;;;2.20;;
37297;SDS011;30517;51.932;4.278;2024-01-06T01:04:16;4.30;;;2.03;;
37297;SDS011;30517;51.932;4.278;2024-01-06T01:06:56;4.90;;;2.40;;
37297;SDS011;30517;51.932;4.278;2024-01-06T01:09:37;3.97;;;2.17;;
37297;SDS011;30517;51.932;4.278;2024-01-06T01:12:18;4.55;;;2.53;;
37297;SDS011;30517;51.932;4.278;2024-01-06T01:14:59;4.20;;;1.83;;
37297;SDS011;30517;51.932;4.278;2024-01-06T01:17:40;4.35;;;2.13;;
37297;SDS011;30517;51.932;4.278;2024-01-06T01:20:21;5.03;;;2.50;;
37297;SDS011;30517;51.932;4.278;2024-01-06T01:23:02;3.78;;;1.90;;
37297;SDS011;30517;51.932;4.278;2024-01-06T01:25:43;3.97;;;2.10;;
37297;SDS011;30517;51.932;4.278;2024-01-06T01:28:24;4.93;;;2.47;;
37297;SDS011;30517;51.932;4.278;2024-01-06T01:31:04;4.40;;;2.20;;
37297;SDS011;30517;51.932;4.278;2024-01-06T01:33:45;4.60;;;2.25;;
37297;SDS011;30517;51.932;4.278;2024-01-06T01:36:26;4.05;;;2.05;;
37297;SDS011;30517;51.932;4.278;2024-01-06T01:39:07;4.20;;;2.08;;
37297;SDS011;30517;51.932;4.278;2024-01-06T01:41:48;3.63;;;1.70;;
37297;SDS011;30517;51.932;4.278;2024-01-06T01:44:28;5.30;;;2.30;;
37297;SDS011;30517;51.932;4.278;2024-01-06T01:47:09;5.55;;;2.15;;
37297;SDS011;30517;51.932;4.278;2024-01-06T01:49:50;4.47;;;1.80;;
37297;SDS011;30517;51.932;4.278;2024-01-06T01:52:31;3.80;;;1.90;;
37297;SDS011;30517;51.932;4.278;2024-01-06T01:55:12;3.38;;;1.70;;
37297;SDS011;30517;51.932;4.278;2024-01-06T01:57:53;3.45;;;1.63;;
37297;SDS011;30517;51.932;4.278;2024-01-06T02:00:35;3.72;;;1.63;;
37297;SDS011;30517;51.932;4.278;2024-01-06T02:03:16;3.53;;;1.60;;
37297;SDS011;30517;51.932;4.278;2024-01-06T02:05:57;4.03;;;1.77;;
37297;SDS011;30517;51.932;4.278;2024-01-06T02:08:38;4.75;;;1.80;;
37297;SDS011;30517;51.932;4.278;2024-01-06T02:11:19;3.22;;;1.67;;
37297;SDS011;30517;51.932;4.278;2024-01-06T02:14:00;4.13;;;1.85;;
37297;SDS011;30517;51.932;4.278;2024-01-06T02:16:41;4.20;;;2.05;;
37297;SDS011;30517;51.932;4.278;2024-01-06T02:19:21;5.07;;;1.73;;
37297;SDS011;30517;51.932;4.278;2024-01-06T02:22:02;3.58;;;1.80;;
37297;SDS011;30517;51.932;4.278;2024-01-06T02:24:43;4.05;;;1.90;;
37297;SDS011;30517;51.932;4.278;2024-01-06T02:27:24;2.92;;;1.40;;
37297;SDS011;30517;51.932;4.278;2024-01-06T02:30:05;3.80;;;1.60;;
37297;SDS011;30517;51.932;4.278;2024-01-06T02:32:47;2.45;;;1.33;;
37297;SDS011;30517;51.932;4.278;2024-01-06T02:35:28;5.45;;;2.35;;
37297;SDS011;30517;51.932;4.278;2024-01-06T02:38:09;3.75;;;1.70;;
37297;SDS011;30517;51.932;4.278;2024-01-06T02:40:50;5.55;;;1.80;;
37297;SDS011;30517;51.932;4.278;2024-01-06T02:43:31;2.50;;;1.55;;
37297;SDS011;30517;51.932;4.278;2024-01-06T02:46:11;2.97;;;1.52;;
37297;SDS011;30517;51.932;4.278;2024-01-06T02:48:52;3.90;;;1.80;;
37297;SDS011;30517;51.932;4.278;2024-01-06T02:51:33;4.20;;;1.90;;
37297;SDS011;30517;51.932;4.278;2024-01-06T02:54:14;4.50;;;1.83;;
37297;SDS011;30517;51.932;4.278;2024-01-06T02:56:55;4.75;;;2.10;;
37297;SDS011;30517;51.932;4.278;2024-01-06T02:59:36;3.83;;;2.00;;
37297;SDS011;30517;51.932;4.278;2024-01-06T03:02:17;2.85;;;1.60;;
37297;SDS011;30517;51.932;4.278;2024-01-06T03:04:57;5.35;;;2.10;;
37297;SDS011;30517;51.932;4.278;2024-01-06T03:07:38;4.32;;;1.88;;
37297;SDS011;30517;51.932;4.278;2024-01-06T03:10:19;5.88;;;2.50;;
37297;SDS011;30517;51.932;4.278;2024-01-06T03:13:00;3.83;;;1.90;;
37297;SDS011;30517;51.932;4.278;2024-01-06T03:15:41;4.25;;;2.25;;
37297;SDS011;30517;51.932;4.278;2024-01-06T03:18:22;3.50;;;1.60;;
37297;SDS011;30517;51.932;4.278;2024-01-06T03:21:03;4.72;;;2.00;;
37297;SDS011;30517;51.932;4.278;2024-01-06T03:23:44;3.63;;;2.17;;
37297;SDS011;30517;51.932;4.278;2024-01-06T03:26:25;4.70;;;2.30;;
37297;SDS011;30517;51.932;4.278;2024-01-06T03:29:05;3.80;;;1.92;;
37297;SDS011;30517;51.932;4.278;2024-01-06T03:31:46;5.88;;;1.85;;
37297;SDS011;30517;51.932;4.278;2024-01-06T03:34:27;6.93;;;2.17;;
37297;SDS011;30517;51.932;4.278;2024-01-06T03:37:08;4.53;;;2.17;;
37297;SDS011;30517;51.932;4.278;2024-01-06T03:39:49;3.80;;;1.83;;
37297;SDS011;30517;51.932;4.278;2024-01-06T03:42:30;4.25;;;2.20;;
37297;SDS011;30517;51.932;4.278;2024-01-06T03:45:11;4.57;;;2.05;;
37297;SDS011;30517;51.932;4.278;2024-01-06T03:47:52;3.78;;;2.00;;
37297;SDS011;30517;51.932;4.278;2024-01-06T03:50:33;5.53;;;2.53;;
37297;SDS011;30517;51.932;4.278;2024-01-06T03:53:13;4.35;;;2.35;;
37297;SDS011;30517;51.932;4.278;2024-01-06T03:55:54;4.00;;;1.90;;
37297;SDS011;30517;51.932;4.278;2024-01-06T03:58:35;4.40;;;2.40;;
37297;SDS011;30517;51.932;4.278;2024-01-06T04:01:16;4.45;;;2.30;;
37297;SDS011;30517;51.932;4.278;2024-01-06T04:03:57;4.90;;;2.45;;
37297;SDS011;30517;51.932;4.278;2024-01-06T04:06:37;4.47;;;2.17;;
37297;SDS011;30517;51.932;4.278;2024-01-06T04:09:18;5.10;;;2.22;;
37297;SDS011;30517;51.932;4.278;2024-01-06T04:11:59;4.57;;;2.22;;
37297;SDS011;30517;51.932;4.278;2024-01-06T04:14:40;5.85;;;2.30;;
37297;SDS011;30517;51.932;4.278;2024-01-06T04:17:21;4.60;;;2.17;;
37297;SDS011;30517;51.932;4.278;2024-01-06T04:20:02;4.82;;;2.60;;
37297;SDS011;30517;51.932;4.278;2024-01-06T04:22:44;5.85;;;2.50;;
37297;SDS011;30517;51.932;4.278;2024-01-06T04:25:25;4.60;;;2.45;;
37297;SDS011;30517;51.932;4.278;2024-01-06T04:28:06;3.60;;;2.13;;
37297;SDS011;30517;51.932;4.278;2024-01-06T04:30:46;4.80;;;2.20;;
37297;SDS011;30517;51.932;4.278;2024-01-06T04:33:27;4.30;;;2.28;;
37297;SDS011;30517;51.932;4.278;2024-01-06T04:36:08;4.30;;;2.15;;
37297;SDS011;30517;51.932;4.278;2024-01-06T04:38:49;4.45;;;2.40;;
37297;SDS011;30517;51.932;4.278;2024-01-06T04:41:30;6.40;;;2.80;;
37297;SDS011;30517;51.932;4.278;2024-01-06T04:44:13;4.18;;;2.50;;
37297;SDS011;30517;51.932;4.278;2024-01-06T04:46:54;5.15;;;2.70;;
37297;SDS011;30517;51.932;4.278;2024-01-06T04:49:35;4.97;;;2.75;;
37297;SDS011;30517;51.932;4.278;2024-01-06T04:52:16;4.22;;;2.25;;
37297;SDS011;30517;51.932;4.278;2024-01-06T04:54:57;4.75;;;2.42;;
37297;SDS011;30517;51.932;4.278;2024-01-06T04:57:38;5.60;;;2.47;;
37297;SDS011;30517;51.932;4.278;2024-01-06T05:00:19;5.97;;;2.72;;
37297;SDS011;30517;51.932;4.278;2024-01-06T05:02:59;5.15;;;2.70;;
37297;SDS011;30517;51.932;4.278;2024-01-06T05:05:40;6.57;;;2.38;;
37297;SDS011;30517;51.932;4.278;2024-01-06T05:08:22;5.25;;;2.58;;
37297;SDS011;30517;51.932;4.278;2024-01-06T05:11:06;5.32;;;2.63;;
37297;SDS011;30517;51.932;4.278;2024-01-06T05:13:46;3.60;;;2.08;;
37297;SDS011;30517;51.932;4.278;2024-01-06T05:16:27;4.15;;;2.25;;
37297;SDS011;30517;51.932;4.278;2024-01-06T05:19:08;5.72;;;2.35;;
37297;SDS011;30517;51.932;4.278;2024-01-06T05:21:49;4.82;;;2.42;;
37297;SDS011;30517;51.932;4.278;2024-01-06T05:24:30;4.65;;;2.42;;
37297;SDS011;30517;51.932;4.278;2024-01-06T05:27:11;4.72;;;2.53;;
37297;SDS011;30517;51.932;4.278;2024-01-06T05:29:52;3.83;;;2.30;;
37297;SDS011;30517;51.932;4.278;2024-01-06T05:32:33;3.97;;;2.22;;
37297;SDS011;30517;51.932;4.278;2024-01-06T05:35:15;5.38;;;2.75;;
37297;SDS011;30517;51.932;4.278;2024-01-06T05:37:57;4.55;;;2.58;;
37297;SDS011;30517;51.932;4.278;2024-01-06T05:40:38;5.13;;;2.20;;
37297;SDS011;30517;51.932;4.278;2024-01-06T05:43:19;5.38;;;2.30;;
37297;SDS011;30517;51.932;4.278;2024-01-06T05:45:59;3.83;;;2.22;;
37297;SDS011;30517;51.932;4.278;2024-01-06T05:48:40;4.97;;;2.50;;
37297;SDS011;30517;51.932;4.278;2024-01-06T05:51:21;5.15;;;2.50;;
37297;SDS011;30517;51.932;4.278;2024-01-06T05:54:03;4.60;;;2.53;;
37297;SDS011;30517;51.932;4.278;2024-01-06T05:56:44;4.80;;;2.53;;
37297;SDS011;30517;51.932;4.278;2024-01-06T05:59:24;5.05;;;2.78;;
37297;SDS011;30517;51.932;4.278;2024-01-06T06:02:05;4.65;;;2.50;;
37297;SDS011;30517;51.932;4.278;2024-01-06T06:04:46;3.97;;;2.30;;
37297;SDS011;30517;51.932;4.278;2024-01-06T06:07:27;6.03;;;2.70;;
37297;SDS011;30517;51.932;4.278;2024-01-06T06:10:10;3.75;;;2.05;;
37297;SDS011;30517;51.932;4.278;2024-01-06T06:12:52;4.10;;;2.42;;
37297;SDS011;30517;51.932;4.278;2024-01-06T06:15:32;4.70;;;2.42;;
37297;SDS011;30517;51.932;4.278;2024-01-06T06:18:13;4.70;;;2.45;;
37297;SDS011;30517;51.932;4.278;2024-01-06T06:20:54;4.30;;;2.30;;
37297;SDS011;30517;51.932;4.278;2024-01-06T06:23:35;4.47;;;2.55;;
37297;SDS011;30517;51.932;4.278;2024-01-06T06:26:16;3.83;;;2.15;;
37297;SDS011;30517;51.932;4.278;2024-01-06T06:28:57;4.32;;;2.20;;
37297;SDS011;30517;51.932;4.278;2024-01-06T06:31:38;4.03;;;2.40;;
37297;SDS011;30517;51.932;4.278;2024-01-06T06:34:19;4.68;;;2.30;;
37297;SDS011;30517;51.932;4.278;2024-01-06T06:36:59;4.15;;;2.40;;
37297;SDS011;30517;51.932;4.278;2024-01-06T06:39:40;3.67;;;2.13;;
37297;SDS011;30517;51.932;4.278;2024-01-06T06:45:06;3.78;;;2.10;;
37297;SDS011;30517;51.932;4.278;2024-01-06T06:47:48;5.68;;;2.30;;
37297;SDS011;30517;51.932;4.278;2024-01-06T06:50:29;4.28;;;2.28;;
37297;SDS011;30517;51.932;4.278;2024-01-06T06:53:10;4.57;;;2.15;;
37297;SDS011;30517;51.932;4.278;2024-01-06T06:55:52;3.63;;;2.00;;
37297;SDS011;30517;51.932;4.278;2024-01-06T06:58:33;4.68;;;2.05;;
37297;SDS011;30517;51.932;4.278;2024-01-06T07:01:15;6.90;;;2.63;;
37297;SDS011;30517;51.932;4.278;2024-01-06T07:03:56;3.65;;;1.88;;
37297;SDS011;30517;51.932;4.278;2024-01-06T07:06:37;7.20;;;2.65;;
37297;SDS011;30517;51.932;4.278;2024-01-06T07:09:18;4.15;;;2.25;;
37297;SDS011;30517;51.932;4.278;2024-01-06T07:11:59;4.68;;;2.28;;
37297;SDS011;30517;51.932;4.278;2024-01-06T07:14:39;4.40;;;2.22;;
37297;SDS011;30517;51.932;4.278;2024-01-06T07:17:20;5.05;;;2.42;;
37297;SDS011;30517;51.932;4.278;2024-01-06T07:20:01;4.68;;;2.40;;
37297;SDS011;30517;51.932;4.278;2024-01-06T07:22:42;4.22;;;2.42;;
37297;SDS011;30517;51.932;4.278;2024-01-06T07:25:24;4.72;;;2.38;;
37297;SDS011;30517;51.932;4.278;2024-01-06T07:28:04;4.47;;;2.25;;
37297;SDS011;30517;51.932;4.278;2024-01-06T07:30:46;4.30;;;2.30;;
37297;SDS011;30517;51.932;4.278;2024-01-06T07:33:27;4.30;;;2.38;;
37297;SDS011;30517;51.932;4.278;2024-01-06T07:36:08;4.63;;;2.30;;
37297;SDS011;30517;51.932;4.278;2024-01-06T07:38:49;4.97;;;2.00;;
37297;SDS011;30517;51.932;4.278;2024-01-06T07:41:30;4.18;;;2.28;;
37297;SDS011;30517;51.932;4.278;2024-01-06T07:44:12;5.50;;;2.40;;
37297;SDS011;30517;51.932;4.278;2024-01-06T07:46:53;4.78;;;2.38;;
37297;SDS011;30517;51.932;4.278;2024-01-06T07:49:34;4.00;;;2.28;;
37297;SDS011;30517;51.932;4.278;2024-01-06T07:52:15;3.78;;;2.17;;
37297;SDS011;30517;51.932;4.278;2024-01-06T07:54:56;3.72;;;2.20;;
37297;SDS011;30517;51.932;4.278;2024-01-06T07:57:36;4.10;;;2.33;;
37297;SDS011;30517;51.932;4.278;2024-01-06T08:00:17;4.15;;;2.28;;
37297;SDS011;30517;51.932;4.278;2024-01-06T08:02:58;4.13;;;2.38;;
37297;SDS011;30517;51.932;4.278;2024-01-06T08:05:40;4.97;;;2.47;;
37297;SDS011;30517;51.932;4.278;2024-01-06T08:08:21;4.70;;;2.38;;
37297;SDS011;30517;51.932;4.278;2024-01-06T08:11:02;4.30;;;2.20;;
37297;SDS011;30517;51.932;4.278;2024-01-06T08:13:42;4.68;;;2.70;;
37297;SDS011;30517;51.932;4.278;2024-01-06T08:16:23;5.00;;;3.00;;
37297;SDS011;30517;51.932;4.278;2024-01-06T08:19:04;4.45;;;2.50;;
37297;SDS011;30517;51.932;4.278;2024-01-06T08:21:45;5.22;;;2.88;;
37297;SDS011;30517;51.932;4.278;2024-01-06T08:24:27;4.60;;;2.47;;
37297;SDS011;30517;51.932;4.278;2024-01-06T08:27:08;4.18;;;2.17;;
37297;SDS011;30517;51.932;4.278;2024-01-06T08:29:49;6.07;;;2.97;;
37297;SDS011;30517;51.932;4.278;2024-01-06T08:32:30;4.97;;;2.60;;
37297;SDS011;30517;51.932;4.278;2024-01-06T08:35:11;4.90;;;3.10;;
37297;SDS011;30517;51.932;4.278;2024-01-06T08:37:52;5.32;;;2.47;;
37297;SDS011;30517;51.932;4.278;2024-01-06T08:40:33;6.40;;;2.70;;
37297;SDS011;30517;51.932;4.278;2024-01-06T08:43:15;5.18;;;2.47;;
37297;SDS011;30517;51.932;4.278;2024-01-06T08:45:56;4.65;;;2.15;;
37297;SDS011;30517;51.932;4.278;2024-01-06T08:48:37;4.53;;;2.58;;
37297;SDS011;30517;51.932;4.278;2024-01-06T08:51:17;5.50;;;2.80;;
37297;SDS011;30517;51.932;4.278;2024-01-06T08:54:00;4.23;;;2.40;;
37297;SDS011;30517;51.932;4.278;2024-01-06T08:56:44;4.63;;;2.65;;
37297;SDS011;30517;51.932;4.278;2024-01-06T08:59:25;4.53;;;2.33;;
37297;SDS011;30517;51.932;4.278;2024-01-06T09:02:06;4.45;;;2.22;;
37297;SDS011;30517;51.932;4.278;2024-01-06T09:04:47;4.70;;;2.40;;
37297;SDS011;30517;51.932;4.278;2024-01-06T09:07:28;7.63;;;2.83;;
37297;SDS011;30517;51.932;4.278;2024-01-06T09:10:09;5.68;;;2.83;;
37297;SDS011;30517;51.932;4.278;2024-01-06T09:12:50;4.80;;;2.50;;
37297;SDS011;30517;51.932;4.278;2024-01-06T09:15:31;4.65;;;2.72;;
37297;SDS011;30517;51.932;4.278;2024-01-06T09:18:12;5.18;;;1.95;;
37297;SDS011;30517;51.932;4.278;2024-01-06T09:20:53;4.60;;;2.22;;
37297;SDS011;30517;51.932;4.278;2024-01-06T09:23:34;4.43;;;2.33;;
37297;SDS011;30517;51.932;4.278;2024-01-06T09:26:15;5.00;;;2.00;;
37297;SDS011;30517;51.932;4.278;2024-01-06T09:28:56;3.95;;;2.13;;
37297;SDS011;30517;51.932;4.278;2024-01-06T09:31:37;4.22;;;2.22;;
37297;SDS011;30517;51.932;4.278;2024-01-06T09:34:18;4.13;;;2.20;;
37297;SDS011;30517;51.932;4.278;2024-01-06T09:36:59;4.25;;;2.40;;
37297;SDS011;30517;51.932;4.278;2024-01-06T09:39:40;3.78;;;2.00;;
37297;SDS011;30517;51.932;4.278;2024-01-06T09:42:21;4.32;;;2.30;;
37297;SDS011;30517;51.932;4.278;2024-01-06T09:45:02;4.20;;;2.13;;
37297;SDS011;30517;51.932;4.278;2024-01-06T09:47:44;3.25;;;1.88;;
37297;SDS011;30517;51.932;4.278;2024-01-06T09:50:29;3.58;;;2.05;;
37297;SDS011;30517;51.932;4.278;2024-01-06T09:53:11;3.83;;;2.13;;
37297;SDS011;30517;51.932;4.278;2024-01-06T09:55:54;4.53;;;2.40;;
37297;SDS011;30517;51.932;4.278;2024-01-06T09:58:36;4.03;;;1.90;;
37297;SDS011;30517;51.932;4.278;2024-01-06T10:01:19;3.88;;;2.13;;
37297;SDS011;30517;51.932;4.278;2024-01-06T10:04:00;4.28;;;2.10;;
37297;SDS011;30517;51.932;4.278;2024-01-06T10:06:41;4.00;;;1.83;;
37297;SDS011;30517;51.932;4.278;2024-01-06T10:09:31;4.43;;;2.38;;
37297;SDS011;30517;51.932;4.278;2024-01-06T10:12:12;4.63;;;2.20;;
37297;SDS011;30517;51.932;4.278;2024-01-06T10:14:56;4.65;;;2.20;;
37297;SDS011;30517;51.932;4.278;2024-01-06T10:17:40;3.83;;;1.70;;
37297;SDS011;30517;51.932;4.278;2024-01-06T10:20:22;3.40;;;1.70;;
37297;SDS011;30517;51.932;4.278;2024-01-06T10:23:06;3.75;;;1.85;;
37297;SDS011;30517;51.932;4.278;2024-01-06T10:25:47;4.78;;;1.95;;
37297;SDS011;30517;51.932;4.278;2024-01-06T10:28:27;3.75;;;1.92;;
37297;SDS011;30517;51.932;4.278;2024-01-06T10:31:09;3.90;;;1.92;;
37297;SDS011;30517;51.932;4.278;2024-01-06T10:33:50;6.03;;;2.00;;
37297;SDS011;30517;51.932;4.278;2024-01-06T10:36:31;4.00;;;1.88;;
37297;SDS011;30517;51.932;4.278;2024-01-06T10:39:12;3.58;;;1.88;;
37297;SDS011;30517;51.932;4.278;2024-01-06T10:41:55;3.28;;;1.80;;
37297;SDS011;30517;51.932;4.278;2024-01-06T10:44:38;3.50;;;1.73;;
37297;SDS011;30517;51.932;4.278;2024-01-06T10:47:19;5.63;;;2.20;;
37297;SDS011;30517;51.932;4.278;2024-01-06T10:50:01;2.97;;;1.55;;
37297;SDS011;30517;51.932;4.278;2024-01-06T10:52:42;3.38;;;1.58;;
37297;SDS011;30517;51.932;4.278;2024-01-06T10:55:24;4.22;;;1.85;;
37297;SDS011;30517;51.932;4.278;2024-01-06T10:58:06;4.25;;;2.08;;
37297;SDS011;30517;51.932;4.278;2024-01-06T11:00:49;5.00;;;1.87;;
37297;SDS011;30517;51.932;4.278;2024-01-06T11:03:30;3.10;;;1.58;;
37297;SDS011;30517;51.932;4.278;2024-01-06T11:06:11;3.40;;;1.95;;
37297;SDS011;30517;51.932;4.278;2024-01-06T11:08:54;4.45;;;1.75;;
37297;SDS011;30517;51.932;4.278;2024-01-06T11:11:51;5.15;;;1.90;;
37297;SDS011;30517;51.932;4.278;2024-01-06T11:14:36;4.05;;;1.80;;
37297;SDS011;30517;51.932;4.278;2024-01-06T11:20:35;3.10;;;1.60;;
37297;SDS011;30517;51.932;4.278;2024-01-06T11:23:17;4.18;;;1.73;;
37297;SDS011;30517;51.932;4.278;2024-01-06T11:26:01;3.35;;;1.48;;
37297;SDS011;30517;51.932;4.278;2024-01-06T11:28:46;3.75;;;1.70;;
37297;SDS011;30517;51.932;4.278;2024-01-06T11:31:30;4.63;;;2.20;;
37297;SDS011;30517;51.932;4.278;2024-01-06T11:34:18;3.80;;;1.95;;
37297;SDS011;30517;51.932;4.278;2024-01-06T11:37:00;2.67;;;1.63;;
37297;SDS011;30517;51.932;4.278;2024-01-06T11:39:41;4.85;;;2.20;;
37297;SDS011;30517;51.932;4.278;2024-01-06T11:55:26;2.92;;;1.63;;
37297;SDS011;30517;51.932;4.278;2024-01-06T11:58:16;3.85;;;2.00;;
37297;SDS011;30517;51.932;4.278;2024-01-06T12:00:57;5.70;;;2.03;;
37297;SDS011;30517;51.932;4.278;2024-01-06T12:03:38;4.00;;;1.92;;
37297;SDS011;30517;51.932;4.278;2024-01-06T12:06:20;3.72;;;1.80;;
37297;SDS011;30517;51.932;4.278;2024-01-06T12:09:04;4.13;;;1.90;;
37297;SDS011;30517;51.932;4.278;2024-01-06T12:12:00;3.58;;;1.67;;
37297;SDS011;30517;51.932;4.278;2024-01-06T12:14:41;3.60;;;2.05;;
37297;SDS011;30517;51.932;4.278;2024-01-06T12:17:22;3.92;;;2.20;;
37297;SDS011;30517;51.932;4.278;2024-01-06T12:20:09;3.83;;;1.90;;
37297;SDS011;30517;51.932;4.278;2024-01-06T12:22:52;5.07;;;1.92;;
37297;SDS011;30517;51.932;4.278;2024-01-06T12:25:34;4.43;;;2.20;;
37297;SDS011;30517;51.932;4.278;2024-01-06T12:28:15;4.60;;;2.25;;
37297;SDS011;30517;51.932;4.278;2024-01-06T12:30:56;4.15;;;2.00;;
37297;SDS011;30517;51.932;4.278;2024-01-06T12:33:40;3.45;;;1.77;;
37297;SDS011;30517;51.932;4.278;2024-01-06T12:36:22;3.15;;;1.60;;
37297;SDS011;30517;51.932;4.278;2024-01-06T12:39:03;4.68;;;1.92;;
37297;SDS011;30517;51.932;4.278;2024-01-06T12:41:44;3.85;;;1.77;;
37297;SDS011;30517;51.932;4.278;2024-01-06T12:44:25;3.28;;;1.88;;
37297;SDS011;30517;51.932;4.278;2024-01-06T12:47:07;3.85;;;2.17;;
37297;SDS011;30517;51.932;4.278;2024-01-06T12:49:48;3.60;;;1.73;;
37297;SDS011;30517;51.932;4.278;2024-01-06T12:52:29;3.05;;;1.80;;
37297;SDS011;30517;51.932;4.278;2024-01-06T12:55:10;2.80;;;1.70;;
37297;SDS011;30517;51.932;4.278;2024-01-06T12:57:51;4.35;;;1.83;;
37297;SDS011;30517;51.932;4.278;2024-01-06T13:00:32;3.50;;;1.65;;
37297;SDS011;30517;51.932;4.278;2024-01-06T13:03:13;3.22;;;1.77;;
37297;SDS011;30517;51.932;4.278;2024-01-06T13:05:54;3.55;;;1.55;;
37297;SDS011;30517;51.932;4.278;2024-01-06T13:08:35;3.63;;;1.70;;
37297;SDS011;30517;51.932;4.278;2024-01-06T13:11:17;4.65;;;1.85;;
37297;SDS011;30517;51.932;4.278;2024-01-06T13:13:58;4.72;;;2.30;;
37297;SDS011;30517;51.932;4.278;2024-01-06T13:16:39;3.35;;;1.80;;
37297;SDS011;30517;51.932;4.278;2024-01-06T13:19:20;4.93;;;1.58;;
37297;SDS011;30517;51.932;4.278;2024-01-06T13:22:01;2.53;;;1.35;;
37297;SDS011;30517;51.932;4.278;2024-01-06T13:24:42;3.33;;;1.50;;
37297;SDS011;30517;51.932;4.278;2024-01-06T13:27:23;2.78;;;1.42;;
37297;SDS011;30517;51.932;4.278;2024-01-06T13:30:04;3.83;;;1.48;;
37297;SDS011;30517;51.932;4.278;2024-01-06T13:32:45;3.25;;;1.67;;
37297;SDS011;30517;51.932;4.278;2024-01-06T13:35:26;3.45;;;1.38;;
37297;SDS011;30517;51.932;4.278;2024-01-06T13:38:08;2.58;;;1.52;;
37297;SDS011;30517;51.932;4.278;2024-01-06T13:40:49;2.95;;;1.42;;
37297;SDS011;30517;51.932;4.278;2024-01-06T13:43:32;3.58;;;1.40;;
37297;SDS011;30517;51.932;4.278;2024-01-06T13:46:13;2.78;;;1.58;;
37297;SDS011;30517;51.932;4.278;2024-01-06T13:48:54;2.70;;;1.50;;
37297;SDS011;30517;51.932;4.278;2024-01-06T13:51:34;2.33;;;1.20;;
37297;SDS011;30517;51.932;4.278;2024-01-06T13:54:15;2.53;;;1.30;;
37297;SDS011;30517;51.932;4.278;2024-01-06T13:56:56;4.18;;;2.00;;
37297;SDS011;30517;51.932;4.278;2024-01-06T13:59:37;2.13;;;1.30;;
37297;SDS011;30517;51.932;4.278;2024-01-06T14:02:22;3.10;;;1.60;;
37297;SDS011;30517;51.932;4.278;2024-01-06T14:05:04;4.47;;;2.13;;
37297;SDS011;30517;51.932;4.278;2024-01-06T14:07:48;2.42;;;1.38;;
37297;SDS011;30517;51.932;4.278;2024-01-06T14:10:30;3.75;;;1.48;;
37297;SDS011;30517;51.932;4.278;2024-01-06T14:13:11;1.70;;;1.10;;
37297;SDS011;30517;51.932;4.278;2024-01-06T14:15:52;1.92;;;1.10;;
37297;SDS011;30517;51.932;4.278;2024-01-06T14:18:33;4.57;;;1.50;;
37297;SDS011;30517;51.932;4.278;2024-01-06T14:21:14;4.28;;;1.67;;
37297;SDS011;30517;51.932;4.278;2024-01-06T14:23:55;3.08;;;1.50;;
37297;SDS011;30517;51.932;4.278;2024-01-06T14:26:36;2.15;;;1.23;;
37297;SDS011;30517;51.932;4.278;2024-01-06T14:29:19;2.70;;;1.30;;
37297;SDS011;30517;51.932;4.278;2024-01-06T14:32:00;2.65;;;1.25;;
37297;SDS011;30517;51.932;4.278;2024-01-06T14:34:41;2.97;;;1.40;;
37297;SDS011;30517;51.932;4.278;2024-01-06T14:37:21;3.20;;;1.38;;
37297;SDS011;30517;51.932;4.278;2024-01-06T14:40:03;3.35;;;1.23;;
37297;SDS011;30517;51.932;4.278;2024-01-06T14:42:45;5.55;;;1.50;;
37297;SDS011;30517;51.932;4.278;2024-01-06T14:45:26;2.20;;;1.40;;
37297;SDS011;30517;51.932;4.278;2024-01-06T14:48:07;3.22;;;1.45;;
37297;SDS011;30517;51.932;4.278;2024-01-06T14:50:48;2.90;;;1.60;;
37297;SDS011;30517;51.932;4.278;2024-01-06T14:53:28;2.80;;;1.50;;
37297;SDS011;30517;51.932;4.278;2024-01-06T14:56:09;4.07;;;1.38;;
37297;SDS011;30517;51.932;4.278;2024-01-06T14:58:50;3.13;;;1.35;;
37297;SDS011;30517;51.932;4.278;2024-01-06T15:01:31;4.07;;;1.60;;
37297;SDS011;30517;51.932;4.278;2024-01-06T15:04:12;4.97;;;1.70;;
37297;SDS011;30517;51.932;4.278;2024-01-06T15:06:53;6.97;;;1.70;;
37297;SDS011;30517;51.932;4.278;2024-01-06T15:09:37;3.40;;;1.58;;
37297;SDS011;30517;51.932;4.278;2024-01-06T15:12:20;4.35;;;1.73;;
37297;SDS011;30517;51.932;4.278;2024-01-06T15:15:01;2.78;;;1.33;;
37297;SDS011;30517;51.932;4.278;2024-01-06T15:17:42;5.68;;;1.60;;
37297;SDS011;30517;51.932;4.278;2024-01-06T15:20:23;3.60;;;1.55;;
37297;SDS011;30517;51.932;4.278;2024-01-06T15:23:04;2.70;;;1.40;;
37297;SDS011;30517;51.932;4.278;2024-01-06T15:25:44;2.75;;;1.42;;
37297;SDS011;30517;51.932;4.278;2024-01-06T15:28:26;3.45;;;1.60;;
37297;SDS011;30517;51.932;4.278;2024-01-06T15:31:07;1.85;;;0.88;;
37297;SDS011;30517;51.932;4.278;2024-01-06T15:33:48;3.22;;;1.35;;
37297;SDS011;30517;51.932;4.278;2024-01-06T15:36:29;4.43;;;1.38;;
37297;SDS011;30517;51.932;4.278;2024-01-06T15:39:10;4.05;;;1.45;;
37297;SDS011;30517;51.932;4.278;2024-01-06T15:41:50;3.33;;;1.50;;
37297;SDS011;30517;51.932;4.278;2024-01-06T15:44:31;2.17;;;1.23;;
37297;SDS011;30517;51.932;4.278;2024-01-06T15:47:13;4.43;;;1.58;;
37297;SDS011;30517;51.932;4.278;2024-01-06T15:49:54;2.25;;;1.33;;
37297;SDS011;30517;51.932;4.278;2024-01-06T15:52:35;5.57;;;1.70;;
37297;SDS011;30517;51.932;4.278;2024-01-06T15:55:17;2.42;;;1.38;;
37297;SDS011;30517;51.932;4.278;2024-01-06T15:57:57;2.03;;;1.15;;
37297;SDS011;30517;51.932;4.278;2024-01-06T16:00:38;2.15;;;1.17;;
37297;SDS011;30517;51.932;4.278;2024-01-06T16:03:19;2.80;;;1.52;;
37297;SDS011;30517;51.932;4.278;2024-01-06T16:06:00;3.28;;;1.20;;
37297;SDS011;30517;51.932;4.278;2024-01-06T16:08:41;2.58;;;1.35;;
37297;SDS011;30517;51.932;4.278;2024-01-06T16:11:22;1.90;;;1.00;;
37297;SDS011;30517;51.932;4.278;2024-01-06T16:14:02;2.35;;;1.25;;
37297;SDS011;30517;51.932;4.278;2024-01-06T16:16:43;3.10;;;1.48;;
37297;SDS011;30517;51.932;4.278;2024-01-06T16:19:24;3.63;;;1.40;;
37297;SDS011;30517;51.932;4.278;2024-01-06T16:22:05;3.05;;;1.20;;
37297;SDS011;30517;51.932;4.278;2024-01-06T16:24:46;2.75;;;1.40;;
37297;SDS011;30517;51.932;4.278;2024-01-06T16:27:27;1.85;;;0.95;;
37297;SDS011;30517;51.932;4.278;2024-01-06T16:30:08;3.70;;;1.48;;
37297;SDS011;30517;51.932;4.278;2024-01-06T16:32:49;2.80;;;1.20;;